sensor_id;sensor_type;location;lat;lon;timestamp;temperature;humidity
14097;DHT22;7125;48.106;11.544;2023-08-24T00:01:43;22.40;99.90
14097;DHT22;7125;48.106;11.544;2023-08-24T00:04:10;22.40;99.90
14097;DHT22;7125;48.106;11.544;2023-08-24T00:06:37;22.40;99.90
14097;DHT22;7125;48.106;11.544;2023-08-24T00:09:04;22.40;99.90
14097;DHT22;7125;48.106;11.544;2023-08-24T00:11:33;22.40;99.90
14097;DHT22;7125;48.106;11.544;2023-08-24T00:13:59;22.40;99.90
14097;DHT22;7125;48.106;11.544;2023-08-24T00:16:28;22.40;99.90
14097;DHT22;7125;48.106;11.544;2023-08-24T00:18:54;22.30;99.90
14097;DHT22;7125;48.106;11.544;2023-08-24T00:21:21;22.30;99.90
14097;DHT22;7125;48.106;11.544;2023-08-24T00:23:49;22.30;99.90
14097;DHT22;7125;48.106;11.544;2023-08-24T00:26:16;22.20;99.90
14097;DHT22;7125;48.106;11.544;2023-08-24T00:28:44;22.20;99.90
14097;DHT22;7125;48.106;11.544;2023-08-24T00:31:11;22.10;99.90
14097;DHT22;7125;48.106;11.544;2023-08-24T00:33:38;22.10;99.90
14097;DHT22;7125;48.106;11.544;2023-08-24T00:36:06;22.10;99.90
14097;DHT22;7125;48.106;11.544;2023-08-24T00:38:33;22.00;99.90
14097;DHT22;7125;48.106;11.544;2023-08-24T00:41:00;21.90;99.90
14097;DHT22;7125;48.106;11.544;2023-08-24T00:43:28;21.90;99.90
14097;DHT22;7125;48.106;11.544;2023-08-24T00:45:58;21.90;99.90
14097;DHT22;7125;48.106;11.544;2023-08-24T00:48:26;21.80;99.90
14097;DHT22;7125;48.106;11.544;2023-08-24T00:50:54;21.80;99.90
14097;DHT22;7125;48.106;11.544;2023-08-24T00:53:24;21.70;99.90
14097;DHT22;7125;48.106;11.544;2023-08-24T00:55:51;21.70;99.90
14097;DHT22;7125;48.106;11.544;2023-08-24T00:58:19;21.70;99.90
14097;DHT22;7125;48.106;11.544;2023-08-24T01:00:47;21.70;99.90
14097;DHT22;7125;48.106;11.544;2023-08-24T01:03:15;21.60;99.90
14097;DHT22;7125;48.106;11.544;2023-08-24T01:05:43;21.60;99.90
14097;DHT22;7125;48.106;11.544;2023-08-24T01:08:11;21.60;99.90
14097;DHT22;7125;48.106;11.544;2023-08-24T01:10:45;21.50;99.90
14097;DHT22;7125;48.106;11.544;2023-08-24T01:13:23;21.50;99.90
14097;DHT22;7125;48.106;11.544;2023-08-24T01:15:58;21.50;99.90
14097;DHT22;7125;48.106;11.544;2023-08-24T01:18:27;21.50;99.90
14097;DHT22;7125;48.106;11.544;2023-08-24T01:20:56;21.40;99.90
14097;DHT22;7125;48.106;11.544;2023-08-24T01:23:33;21.40;99.90
14097;DHT22;7125;48.106;11.544;2023-08-24T01:26:17;21.30;99.90
14097;DHT22;7125;48.106;11.544;2023-08-24T01:28:54;21.30;99.90
14097;DHT22;7125;48.106;11.544;2023-08-24T01:31:24;21.30;99.90
14097;DHT22;7125;48.106;11.544;2023-08-24T01:33:51;21.30;99.90
14097;DHT22;7125;48.106;11.544;2023-08-24T01:36:21;21.20;99.90
14097;DHT22;7125;48.106;11.544;2023-08-24T01:38:57;21.20;99.90
14097;DHT22;7125;48.106;11.544;2023-08-24T01:41:30;21.10;99.90
14097;DHT22;7125;48.106;11.544;2023-08-24T01:44:00;21.10;99.90
14097;DHT22;7125;48.106;11.544;2023-08-24T01:46:29;21.10;99.90
14097;DHT22;7125;48.106;11.544;2023-08-24T01:48:58;21.10;99.90
14097;DHT22;7125;48.106;11.544;2023-08-24T01:51:26;21.10;99.90
14097;DHT22;7125;48.106;11.544;2023-08-24T01:53:53;21.10;99.90
14097;DHT22;7125;48.106;11.544;2023-08-24T01:56:20;21.00;99.90
14097;DHT22;7125;48.106;11.544;2023-08-24T01:58:48;21.00;99.90
14097;DHT22;7125;48.106;11.544;2023-08-24T02:01:15;21.00;99.90
14097;DHT22;7125;48.106;11.544;2023-08-24T02:03:43;21.00;99.90
14097;DHT22;7125;48.106;11.544;2023-08-24T02:06:10;20.90;99.90
14097;DHT22;7125;48.106;11.544;2023-08-24T02:08:37;20.90;99.90
14097;DHT22;7125;48.106;11.544;2023-08-24T02:11:04;20.80;99.90
14097;DHT22;7125;48.106;11.544;2023-08-24T02:13:32;20.80;99.90
14097;DHT22;7125;48.106;11.544;2023-08-24T02:16:04;20.80;99.90
14097;DHT22;7125;48.106;11.544;2023-08-24T02:18:32;20.80;99.90
14097;DHT22;7125;48.106;11.544;2023-08-24T02:21:07;20.70;99.90
14097;DHT22;7125;48.106;11.544;2023-08-24T02:23:34;20.70;99.90
14097;DHT22;7125;48.106;11.544;2023-08-24T02:26:01;20.70;99.90
14097;DHT22;7125;48.106;11.544;2023-08-24T02:28:28;20.70;99.90
14097;DHT22;7125;48.106;11.544;2023-08-24T02:30:59;20.70;99.90
14097;DHT22;7125;48.106;11.544;2023-08-24T02:33:28;20.60;99.90
14097;DHT22;7125;48.106;11.544;2023-08-24T02:35:55;20.60;99.90
14097;DHT22;7125;48.106;11.544;2023-08-24T02:38:23;20.60;99.90
14097;DHT22;7125;48.106;11.544;2023-08-24T02:41:00;20.60;99.90
14097;DHT22;7125;48.106;11.544;2023-08-24T02:43:30;20.60;99.90
14097;DHT22;7125;48.106;11.544;2023-08-24T02:46:00;20.60;99.90
14097;DHT22;7125;48.106;11.544;2023-08-24T02:48:30;20.60;99.90
14097;DHT22;7125;48.106;11.544;2023-08-24T02:50:57;20.50;99.90
14097;DHT22;7125;48.106;11.544;2023-08-24T02:53:24;20.50;99.90
14097;DHT22;7125;48.106;11.544;2023-08-24T02:55:51;20.50;99.90
14097;DHT22;7125;48.106;11.544;2023-08-24T02:58:21;20.40;99.90
14097;DHT22;7125;48.106;11.544;2023-08-24T03:00:48;20.40;99.90
14097;DHT22;7125;48.106;11.544;2023-08-24T03:03:15;20.40;99.90
14097;DHT22;7125;48.106;11.544;2023-08-24T03:05:54;20.40;99.90
14097;DHT22;7125;48.106;11.544;2023-08-24T03:08:21;20.40;99.90
14097;DHT22;7125;48.106;11.544;2023-08-24T03:10:48;20.40;99.90
14097;DHT22;7125;48.106;11.544;2023-08-24T03:13:15;20.40;99.90
14097;DHT22;7125;48.106;11.544;2023-08-24T03:15:42;20.40;99.90
14097;DHT22;7125;48.106;11.544;2023-08-24T03:18:11;20.40;99.90
14097;DHT22;7125;48.106;11.544;2023-08-24T03:20:38;20.30;99.90
14097;DHT22;7125;48.106;11.544;2023-08-24T03:23:08;20.30;99.90
14097;DHT22;7125;48.106;11.544;2023-08-24T03:25:36;20.30;99.90
14097;DHT22;7125;48.106;11.544;2023-08-24T03:28:04;20.30;99.90
14097;DHT22;7125;48.106;11.544;2023-08-24T03:30:31;20.30;99.90
14097;DHT22;7125;48.106;11.544;2023-08-24T03:32:58;20.20;99.90
14097;DHT22;7125;48.106;11.544;2023-08-24T03:35:26;20.20;99.90
14097;DHT22;7125;48.106;11.544;2023-08-24T03:37:53;20.20;99.90
14097;DHT22;7125;48.106;11.544;2023-08-24T03:40:22;20.20;99.90
14097;DHT22;7125;48.106;11.544;2023-08-24T03:42:49;20.20;99.90
14097;DHT22;7125;48.106;11.544;2023-08-24T03:45:16;20.10;99.90
14097;DHT22;7125;48.106;11.544;2023-08-24T03:47:44;20.10;99.90
14097;DHT22;7125;48.106;11.544;2023-08-24T03:50:11;20.10;99.90
14097;DHT22;7125;48.106;11.544;2023-08-24T03:52:38;20.10;99.90
14097;DHT22;7125;48.106;11.544;2023-08-24T03:55:06;20.10;99.90
14097;DHT22;7125;48.106;11.544;2023-08-24T03:57:35;20.10;99.90
14097;DHT22;7125;48.106;11.544;2023-08-24T04:00:05;20.10;99.90
14097;DHT22;7125;48.106;11.544;2023-08-24T04:02:39;20.00;99.90
14097;DHT22;7125;48.106;11.544;2023-08-24T04:05:07;20.00;99.90
14097;DHT22;7125;48.106;11.544;2023-08-24T04:07:33;20.00;99.90
14097;DHT22;7125;48.106;11.544;2023-08-24T04:10:02;20.00;99.90
14097;DHT22;7125;48.106;11.544;2023-08-24T04:12:30;19.90;99.90
14097;DHT22;7125;48.106;11.544;2023-08-24T04:14:58;19.90;99.90
14097;DHT22;7125;48.106;11.544;2023-08-24T04:17:25;19.90;99.90
14097;DHT22;7125;48.106;11.544;2023-08-24T04:19:52;19.90;99.90
14097;DHT22;7125;48.106;11.544;2023-08-24T04:22:20;19.80;99.90
14097;DHT22;7125;48.106;11.544;2023-08-24T04:24:47;19.80;99.90
14097;DHT22;7125;48.106;11.544;2023-08-24T04:27:14;19.80;99.90
14097;DHT22;7125;48.106;11.544;2023-08-24T04:29:41;19.80;99.90
14097;DHT22;7125;48.106;11.544;2023-08-24T04:32:09;19.80;99.90
14097;DHT22;7125;48.106;11.544;2023-08-24T04:34:36;19.80;99.90
14097;DHT22;7125;48.106;11.544;2023-08-24T04:37:03;19.80;99.90
14097;DHT22;7125;48.106;11.544;2023-08-24T04:39:30;19.80;99.90
14097;DHT22;7125;48.106;11.544;2023-08-24T04:41:57;19.80;99.90
14097;DHT22;7125;48.106;11.544;2023-08-24T04:44:24;19.80;99.90
14097;DHT22;7125;48.106;11.544;2023-08-24T04:46:51;19.80;99.90
14097;DHT22;7125;48.106;11.544;2023-08-24T04:49:19;19.80;99.90
14097;DHT22;7125;48.106;11.544;2023-08-24T04:51:46;19.80;99.90
14097;DHT22;7125;48.106;11.544;2023-08-24T04:54:13;19.80;99.90
14097;DHT22;7125;48.106;11.544;2023-08-24T04:56:40;19.80;99.90
14097;DHT22;7125;48.106;11.544;2023-08-24T04:59:08;19.80;99.90
14097;DHT22;7125;48.106;11.544;2023-08-24T05:01:36;19.80;99.90
14097;DHT22;7125;48.106;11.544;2023-08-24T05:04:03;19.80;99.90
14097;DHT22;7125;48.106;11.544;2023-08-24T05:06:32;19.80;99.90
14097;DHT22;7125;48.106;11.544;2023-08-24T05:08:59;19.80;99.90
14097;DHT22;7125;48.106;11.544;2023-08-24T05:11:27;19.80;99.90
14097;DHT22;7125;48.106;11.544;2023-08-24T05:13:57;19.80;99.90
14097;DHT22;7125;48.106;11.544;2023-08-24T05:16:25;19.80;99.90
14097;DHT22;7125;48.106;11.544;2023-08-24T05:18:53;19.90;99.90
14097;DHT22;7125;48.106;11.544;2023-08-24T05:21:20;19.90;99.90
14097;DHT22;7125;48.106;11.544;2023-08-24T05:23:48;19.90;99.90
14097;DHT22;7125;48.106;11.544;2023-08-24T05:26:15;19.90;99.90
14097;DHT22;7125;48.106;11.544;2023-08-24T05:28:47;20.00;99.90
14097;DHT22;7125;48.106;11.544;2023-08-24T05:31:14;20.00;99.90
14097;DHT22;7125;48.106;11.544;2023-08-24T05:33:41;20.10;99.90
14097;DHT22;7125;48.106;11.544;2023-08-24T05:36:08;20.10;99.90
14097;DHT22;7125;48.106;11.544;2023-08-24T05:38:35;20.20;99.90
14097;DHT22;7125;48.106;11.544;2023-08-24T05:41:03;20.30;99.90
14097;DHT22;7125;48.106;11.544;2023-08-24T05:43:30;20.30;99.90
14097;DHT22;7125;48.106;11.544;2023-08-24T05:45:57;20.40;99.90
14097;DHT22;7125;48.106;11.544;2023-08-24T05:48:24;20.40;99.90
14097;DHT22;7125;48.106;11.544;2023-08-24T05:50:51;20.50;99.90
14097;DHT22;7125;48.106;11.544;2023-08-24T05:53:18;20.60;99.90
14097;DHT22;7125;48.106;11.544;2023-08-24T05:55:45;20.60;99.90
14097;DHT22;7125;48.106;11.544;2023-08-24T05:58:13;20.70;99.90
14097;DHT22;7125;48.106;11.544;2023-08-24T06:00:42;20.80;99.90
14097;DHT22;7125;48.106;11.544;2023-08-24T06:03:09;20.80;99.90
14097;DHT22;7125;48.106;11.544;2023-08-24T06:05:36;20.90;99.90
14097;DHT22;7125;48.106;11.544;2023-08-24T06:08:05;21.00;99.90
14097;DHT22;7125;48.106;11.544;2023-08-24T06:10:31;21.00;99.90
14097;DHT22;7125;48.106;11.544;2023-08-24T06:12:59;21.10;99.90
14097;DHT22;7125;48.106;11.544;2023-08-24T06:15:28;21.20;99.90
14097;DHT22;7125;48.106;11.544;2023-08-24T06:17:55;21.30;99.90
14097;DHT22;7125;48.106;11.544;2023-08-24T06:20:24;21.30;99.90
14097;DHT22;7125;48.106;11.544;2023-08-24T06:22:51;21.40;99.90
14097;DHT22;7125;48.106;11.544;2023-08-24T06:25:18;21.50;99.90
14097;DHT22;7125;48.106;11.544;2023-08-24T06:27:45;21.50;99.90
14097;DHT22;7125;48.106;11.544;2023-08-24T06:30:12;21.60;99.90
14097;DHT22;7125;48.106;11.544;2023-08-24T06:32:40;21.70;99.90
14097;DHT22;7125;48.106;11.544;2023-08-24T06:35:08;21.80;99.90
14097;DHT22;7125;48.106;11.544;2023-08-24T06:37:35;21.80;99.90
14097;DHT22;7125;48.106;11.544;2023-08-24T06:40:02;21.90;99.90
14097;DHT22;7125;48.106;11.544;2023-08-24T06:42:30;22.00;99.90
14097;DHT22;7125;48.106;11.544;2023-08-24T06:44:57;22.10;99.90
14097;DHT22;7125;48.106;11.544;2023-08-24T06:47:23;22.20;99.90
14097;DHT22;7125;48.106;11.544;2023-08-24T06:49:52;22.20;99.90
14097;DHT22;7125;48.106;11.544;2023-08-24T06:52:20;22.30;99.90
14097;DHT22;7125;48.106;11.544;2023-08-24T06:54:47;22.40;99.90
14097;DHT22;7125;48.106;11.544;2023-08-24T06:57:19;22.50;99.90
14097;DHT22;7125;48.106;11.544;2023-08-24T06:59:49;22.70;99.90
14097;DHT22;7125;48.106;11.544;2023-08-24T07:02:23;22.80;99.90
14097;DHT22;7125;48.106;11.544;2023-08-24T07:04:52;22.90;99.90
14097;DHT22;7125;48.106;11.544;2023-08-24T07:07:19;23.00;99.90
14097;DHT22;7125;48.106;11.544;2023-08-24T07:09:46;23.20;99.90
14097;DHT22;7125;48.106;11.544;2023-08-24T07:12:13;23.40;99.90
14097;DHT22;7125;48.106;11.544;2023-08-24T07:14:42;23.50;99.90
14097;DHT22;7125;48.106;11.544;2023-08-24T07:17:17;23.60;99.90
14097;DHT22;7125;48.106;11.544;2023-08-24T07:19:44;23.80;99.90
14097;DHT22;7125;48.106;11.544;2023-08-24T07:22:13;23.90;99.90
14097;DHT22;7125;48.106;11.544;2023-08-24T07:24:40;24.00;99.90
14097;DHT22;7125;48.106;11.544;2023-08-24T07:27:07;24.10;99.90
14097;DHT22;7125;48.106;11.544;2023-08-24T07:29:35;24.20;99.90
14097;DHT22;7125;48.106;11.544;2023-08-24T07:34:40;24.40;99.90
14097;DHT22;7125;48.106;11.544;2023-08-24T07:37:07;24.50;99.90
14097;DHT22;7125;48.106;11.544;2023-08-24T07:39:42;24.50;99.90
14097;DHT22;7125;48.106;11.544;2023-08-24T07:42:09;24.50;99.90
14097;DHT22;7125;48.106;11.544;2023-08-24T07:44:36;24.60;99.90
14097;DHT22;7125;48.106;11.544;2023-08-24T07:47:03;24.70;99.90
14097;DHT22;7125;48.106;11.544;2023-08-24T07:49:30;24.80;99.90
14097;DHT22;7125;48.106;11.544;2023-08-24T07:51:57;24.90;99.90
14097;DHT22;7125;48.106;11.544;2023-08-24T07:54:24;25.00;99.90
14097;DHT22;7125;48.106;11.544;2023-08-24T07:56:53;25.00;99.90
14097;DHT22;7125;48.106;11.544;2023-08-24T07:59:20;25.10;99.90
14097;DHT22;7125;48.106;11.544;2023-08-24T08:01:47;25.20;99.90
14097;DHT22;7125;48.106;11.544;2023-08-24T08:04:14;25.30;99.90
14097;DHT22;7125;48.106;11.544;2023-08-24T08:06:41;25.50;99.90
14097;DHT22;7125;48.106;11.544;2023-08-24T08:09:08;25.60;99.90
14097;DHT22;7125;48.106;11.544;2023-08-24T08:11:35;25.60;99.90
14097;DHT22;7125;48.106;11.544;2023-08-24T08:14:03;25.80;99.90
14097;DHT22;7125;48.106;11.544;2023-08-24T08:16:30;25.80;99.90
14097;DHT22;7125;48.106;11.544;2023-08-24T08:18:57;26.00;99.90
14097;DHT22;7125;48.106;11.544;2023-08-24T08:21:24;26.10;99.90
14097;DHT22;7125;48.106;11.544;2023-08-24T08:23:51;26.10;99.90
14097;DHT22;7125;48.106;11.544;2023-08-24T08:26:19;26.30;99.90
14097;DHT22;7125;48.106;11.544;2023-08-24T08:28:46;26.30;99.90
14097;DHT22;7125;48.106;11.544;2023-08-24T08:31:14;26.40;99.90
14097;DHT22;7125;48.106;11.544;2023-08-24T08:33:41;26.40;99.90
14097;DHT22;7125;48.106;11.544;2023-08-24T08:36:08;26.50;99.90
14097;DHT22;7125;48.106;11.544;2023-08-24T08:38:35;26.50;99.90
14097;DHT22;7125;48.106;11.544;2023-08-24T08:41:03;26.60;99.90
14097;DHT22;7125;48.106;11.544;2023-08-24T08:43:31;26.70;99.90
14097;DHT22;7125;48.106;11.544;2023-08-24T08:46:00;26.90;99.90
14097;DHT22;7125;48.106;11.544;2023-08-24T08:48:30;26.90;99.90
14097;DHT22;7125;48.106;11.544;2023-08-24T08:51:05;27.00;99.90
14097;DHT22;7125;48.106;11.544;2023-08-24T08:53:32;27.10;99.90
14097;DHT22;7125;48.106;11.544;2023-08-24T08:56:00;27.20;99.90
14097;DHT22;7125;48.106;11.544;2023-08-24T08:58:31;27.20;99.90
14097;DHT22;7125;48.106;11.544;2023-08-24T09:00:58;27.30;99.90
14097;DHT22;7125;48.106;11.544;2023-08-24T09:03:31;27.30;99.90
14097;DHT22;7125;48.106;11.544;2023-08-24T09:05:58;27.40;99.90
14097;DHT22;7125;48.106;11.544;2023-08-24T09:08:25;27.40;99.90
14097;DHT22;7125;48.106;11.544;2023-08-24T09:10:53;27.60;99.90
14097;DHT22;7125;48.106;11.544;2023-08-24T09:13:21;27.70;99.90
14097;DHT22;7125;48.106;11.544;2023-08-24T09:15:51;27.70;99.90
14097;DHT22;7125;48.106;11.544;2023-08-24T09:18:18;27.70;99.90
14097;DHT22;7125;48.106;11.544;2023-08-24T09:20:47;27.70;99.90
14097;DHT22;7125;48.106;11.544;2023-08-24T09:23:17;27.70;99.90
14097;DHT22;7125;48.106;11.544;2023-08-24T09:25:46;27.60;99.90
14097;DHT22;7125;48.106;11.544;2023-08-24T09:28:22;27.60;99.90
14097;DHT22;7125;48.106;11.544;2023-08-24T09:30:52;27.70;99.90
14097;DHT22;7125;48.106;11.544;2023-08-24T09:33:20;27.80;99.90
14097;DHT22;7125;48.106;11.544;2023-08-24T09:35:53;27.90;99.90
14097;DHT22;7125;48.106;11.544;2023-08-24T09:38:22;28.10;99.90
14097;DHT22;7125;48.106;11.544;2023-08-24T09:40:51;28.20;99.90
14097;DHT22;7125;48.106;11.544;2023-08-24T09:43:18;28.40;99.90
14097;DHT22;7125;48.106;11.544;2023-08-24T09:45:49;28.60;99.90
14097;DHT22;7125;48.106;11.544;2023-08-24T09:48:17;28.80;99.90
14097;DHT22;7125;48.106;11.544;2023-08-24T09:50:47;29.10;99.90
14097;DHT22;7125;48.106;11.544;2023-08-24T09:53:17;29.20;99.90
14097;DHT22;7125;48.106;11.544;2023-08-24T09:55:54;29.30;99.90
14097;DHT22;7125;48.106;11.544;2023-08-24T09:58:22;29.30;99.90
14097;DHT22;7125;48.106;11.544;2023-08-24T10:00:51;29.30;99.70
14097;DHT22;7125;48.106;11.544;2023-08-24T10:03:20;29.40;99.00
14097;DHT22;7125;48.106;11.544;2023-08-24T10:05:51;29.40;99.60
14097;DHT22;7125;48.106;11.544;2023-08-24T10:08:26;29.40;99.90
14097;DHT22;7125;48.106;11.544;2023-08-24T10:10:55;29.40;99.60
14097;DHT22;7125;48.106;11.544;2023-08-24T10:13:29;29.40;99.20
14097;DHT22;7125;48.106;11.544;2023-08-24T10:15:59;29.30;98.80
14097;DHT22;7125;48.106;11.544;2023-08-24T10:18:27;29.30;99.90
14097;DHT22;7125;48.106;11.544;2023-08-24T10:20:54;29.30;99.40
14097;DHT22;7125;48.106;11.544;2023-08-24T10:23:24;29.30;98.20
14097;DHT22;7125;48.106;11.544;2023-08-24T10:25:53;29.30;98.10
14097;DHT22;7125;48.106;11.544;2023-08-24T10:28:24;29.40;97.70
14097;DHT22;7125;48.106;11.544;2023-08-24T10:30:57;29.40;98.60
14097;DHT22;7125;48.106;11.544;2023-08-24T10:33:26;29.50;98.30
14097;DHT22;7125;48.106;11.544;2023-08-24T10:35:53;29.50;96.20
14097;DHT22;7125;48.106;11.544;2023-08-24T10:38:26;29.70;97.60
14097;DHT22;7125;48.106;11.544;2023-08-24T10:40:54;29.80;95.40
14097;DHT22;7125;48.106;11.544;2023-08-24T10:43:22;29.90;96.20
14097;DHT22;7125;48.106;11.544;2023-08-24T10:45:59;29.80;95.10
14097;DHT22;7125;48.106;11.544;2023-08-24T10:48:30;29.90;94.70
14097;DHT22;7125;48.106;11.544;2023-08-24T10:51:18;30.00;94.60
14097;DHT22;7125;48.106;11.544;2023-08-24T10:53:51;30.10;95.40
14097;DHT22;7125;48.106;11.544;2023-08-24T10:56:18;30.20;94.80
14097;DHT22;7125;48.106;11.544;2023-08-24T10:58:47;30.30;93.70
14097;DHT22;7125;48.106;11.544;2023-08-24T11:01:17;30.40;94.00
14097;DHT22;7125;48.106;11.544;2023-08-24T11:03:54;30.50;91.40
14097;DHT22;7125;48.106;11.544;2023-08-24T11:06:22;30.60;90.80
14097;DHT22;7125;48.106;11.544;2023-08-24T11:09:06;30.70;91.40
14097;DHT22;7125;48.106;11.544;2023-08-24T11:11:40;30.70;91.80
14097;DHT22;7125;48.106;11.544;2023-08-24T11:14:13;30.70;91.80
14097;DHT22;7125;48.106;11.544;2023-08-24T11:16:41;30.90;90.00
14097;DHT22;7125;48.106;11.544;2023-08-24T11:19:08;31.00;88.40
14097;DHT22;7125;48.106;11.544;2023-08-24T11:21:37;31.10;87.90
14097;DHT22;7125;48.106;11.544;2023-08-24T11:24:06;31.20;86.80
14097;DHT22;7125;48.106;11.544;2023-08-24T11:26:34;31.30;85.20
14097;DHT22;7125;48.106;11.544;2023-08-24T11:29:05;31.40;84.80
14097;DHT22;7125;48.106;11.544;2023-08-24T11:31:33;31.50;85.40
14097;DHT22;7125;48.106;11.544;2023-08-24T11:34:00;31.50;85.30
14097;DHT22;7125;48.106;11.544;2023-08-24T11:36:28;31.60;87.30
14097;DHT22;7125;48.106;11.544;2023-08-24T11:38:57;31.80;85.80
14097;DHT22;7125;48.106;11.544;2023-08-24T11:41:26;31.90;83.10
14097;DHT22;7125;48.106;11.544;2023-08-24T11:44:02;32.10;82.50
14097;DHT22;7125;48.106;11.544;2023-08-24T11:46:29;32.10;83.30
14097;DHT22;7125;48.106;11.544;2023-08-24T11:48:58;32.30;77.30
14097;DHT22;7125;48.106;11.544;2023-08-24T11:51:25;32.50;76.70
14097;DHT22;7125;48.106;11.544;2023-08-24T11:53:53;32.50;78.80
14097;DHT22;7125;48.106;11.544;2023-08-24T11:56:20;32.50;81.10
14097;DHT22;7125;48.106;11.544;2023-08-24T11:58:51;32.60;80.80
14097;DHT22;7125;48.106;11.544;2023-08-24T12:01:18;32.70;81.40
14097;DHT22;7125;48.106;11.544;2023-08-24T12:03:45;32.80;80.40
14097;DHT22;7125;48.106;11.544;2023-08-24T12:06:14;32.80;77.10
14097;DHT22;7125;48.106;11.544;2023-08-24T12:08:42;32.80;74.50
14097;DHT22;7125;48.106;11.544;2023-08-24T12:11:17;32.90;73.70
14097;DHT22;7125;48.106;11.544;2023-08-24T12:13:46;33.00;74.40
14097;DHT22;7125;48.106;11.544;2023-08-24T12:16:15;33.00;75.10
14097;DHT22;7125;48.106;11.544;2023-08-24T12:18:50;33.00;72.90
14097;DHT22;7125;48.106;11.544;2023-08-24T12:21:17;33.10;70.40
14097;DHT22;7125;48.106;11.544;2023-08-24T12:23:45;33.10;71.90
14097;DHT22;7125;48.106;11.544;2023-08-24T12:26:21;33.10;70.80
14097;DHT22;7125;48.106;11.544;2023-08-24T12:28:51;33.10;72.80
14097;DHT22;7125;48.106;11.544;2023-08-24T12:31:20;33.10;73.50
14097;DHT22;7125;48.106;11.544;2023-08-24T12:33:59;33.20;72.00
14097;DHT22;7125;48.106;11.544;2023-08-24T12:36:26;33.30;71.10
14097;DHT22;7125;48.106;11.544;2023-08-24T12:38:54;33.40;68.00
14097;DHT22;7125;48.106;11.544;2023-08-24T12:41:22;33.50;66.90
14097;DHT22;7125;48.106;11.544;2023-08-24T12:43:49;33.60;68.70
14097;DHT22;7125;48.106;11.544;2023-08-24T12:46:16;33.60;66.20
14097;DHT22;7125;48.106;11.544;2023-08-24T12:48:44;33.60;64.30
14097;DHT22;7125;48.106;11.544;2023-08-24T12:51:11;33.40;65.80
14097;DHT22;7125;48.106;11.544;2023-08-24T12:53:38;33.20;67.90
14097;DHT22;7125;48.106;11.544;2023-08-24T12:56:05;33.10;69.00
14097;DHT22;7125;48.106;11.544;2023-08-24T12:58:32;32.80;70.90
14097;DHT22;7125;48.106;11.544;2023-08-24T13:00:59;32.90;68.90
14097;DHT22;7125;48.106;11.544;2023-08-24T13:03:26;32.90;71.10
14097;DHT22;7125;48.106;11.544;2023-08-24T13:05:54;33.00;70.50
14097;DHT22;7125;48.106;11.544;2023-08-24T13:08:21;33.10;68.30
14097;DHT22;7125;48.106;11.544;2023-08-24T13:10:48;33.10;67.40
14097;DHT22;7125;48.106;11.544;2023-08-24T13:13:16;33.20;69.30
14097;DHT22;7125;48.106;11.544;2023-08-24T13:15:43;33.30;69.30
14097;DHT22;7125;48.106;11.544;2023-08-24T13:18:10;33.40;65.20
14097;DHT22;7125;48.106;11.544;2023-08-24T13:20:37;33.50;66.00
14097;DHT22;7125;48.106;11.544;2023-08-24T13:23:05;33.60;70.00
14097;DHT22;7125;48.106;11.544;2023-08-24T13:25:32;33.60;68.50
14097;DHT22;7125;48.106;11.544;2023-08-24T13:27:58;33.80;63.80
14097;DHT22;7125;48.106;11.544;2023-08-24T13:30:25;33.90;62.30
14097;DHT22;7125;48.106;11.544;2023-08-24T13:32:52;34.00;64.70
14097;DHT22;7125;48.106;11.544;2023-08-24T13:35:19;34.10;65.50
14097;DHT22;7125;48.106;11.544;2023-08-24T13:37:47;34.20;62.50
14097;DHT22;7125;48.106;11.544;2023-08-24T13:40:15;34.20;66.30
14097;DHT22;7125;48.106;11.544;2023-08-24T13:42:42;34.20;63.50
14097;DHT22;7125;48.106;11.544;2023-08-24T13:45:09;34.20;64.60
14097;DHT22;7125;48.106;11.544;2023-08-24T13:47:36;34.30;64.60
14097;DHT22;7125;48.106;11.544;2023-08-24T13:50:04;34.30;68.00
14097;DHT22;7125;48.106;11.544;2023-08-24T13:52:31;34.50;66.70
14097;DHT22;7125;48.106;11.544;2023-08-24T13:54:58;34.50;63.60
14097;DHT22;7125;48.106;11.544;2023-08-24T13:57:30;34.50;62.30
14097;DHT22;7125;48.106;11.544;2023-08-24T13:59:57;34.50;63.50
14097;DHT22;7125;48.106;11.544;2023-08-24T14:02:25;34.50;63.00
14097;DHT22;7125;48.106;11.544;2023-08-24T14:04:52;34.60;64.40
14097;DHT22;7125;48.106;11.544;2023-08-24T14:07:19;34.50;65.60
14097;DHT22;7125;48.106;11.544;2023-08-24T14:09:46;34.50;65.50
14097;DHT22;7125;48.106;11.544;2023-08-24T14:12:13;34.50;61.60
14097;DHT22;7125;48.106;11.544;2023-08-24T14:14:41;34.50;64.80
14097;DHT22;7125;48.106;11.544;2023-08-24T14:17:08;34.50;62.70
14097;DHT22;7125;48.106;11.544;2023-08-24T14:19:35;34.40;65.90
14097;DHT22;7125;48.106;11.544;2023-08-24T14:22:02;34.40;64.40
14097;DHT22;7125;48.106;11.544;2023-08-24T14:24:29;34.40;65.30
14097;DHT22;7125;48.106;11.544;2023-08-24T14:26:56;34.40;63.90
14097;DHT22;7125;48.106;11.544;2023-08-24T14:29:23;34.50;65.90
14097;DHT22;7125;48.106;11.544;2023-08-24T14:31:51;34.40;65.20
14097;DHT22;7125;48.106;11.544;2023-08-24T14:34:18;34.40;66.50
14097;DHT22;7125;48.106;11.544;2023-08-24T14:36:45;34.40;64.70
14097;DHT22;7125;48.106;11.544;2023-08-24T14:39:12;34.30;64.50
14097;DHT22;7125;48.106;11.544;2023-08-24T14:41:39;34.20;66.30
14097;DHT22;7125;48.106;11.544;2023-08-24T14:44:07;34.20;63.60
14097;DHT22;7125;48.106;11.544;2023-08-24T14:46:33;34.20;64.80
14097;DHT22;7125;48.106;11.544;2023-08-24T14:49:02;34.20;68.60
14097;DHT22;7125;48.106;11.544;2023-08-24T14:51:29;34.30;65.00
14097;DHT22;7125;48.106;11.544;2023-08-24T14:53:56;34.40;64.60
14097;DHT22;7125;48.106;11.544;2023-08-24T14:56:23;34.30;67.50
14097;DHT22;7125;48.106;11.544;2023-08-24T14:58:49;34.40;67.80
14097;DHT22;7125;48.106;11.544;2023-08-24T15:01:16;34.20;68.30
14097;DHT22;7125;48.106;11.544;2023-08-24T15:03:43;34.10;69.40
14097;DHT22;7125;48.106;11.544;2023-08-24T15:06:12;33.90;66.90
14097;DHT22;7125;48.106;11.544;2023-08-24T15:08:38;33.80;65.40
14097;DHT22;7125;48.106;11.544;2023-08-24T15:11:06;33.70;63.10
14097;DHT22;7125;48.106;11.544;2023-08-24T15:13:33;33.60;65.10
14097;DHT22;7125;48.106;11.544;2023-08-24T15:16:00;33.60;62.90
14097;DHT22;7125;48.106;11.544;2023-08-24T15:18:27;33.60;65.20
14097;DHT22;7125;48.106;11.544;2023-08-24T15:20:54;33.60;66.80
14097;DHT22;7125;48.106;11.544;2023-08-24T15:23:25;33.60;63.60
14097;DHT22;7125;48.106;11.544;2023-08-24T15:25:53;33.60;62.60
14097;DHT22;7125;48.106;11.544;2023-08-24T15:28:20;33.60;63.00
14097;DHT22;7125;48.106;11.544;2023-08-24T15:30:47;33.60;66.00
14097;DHT22;7125;48.106;11.544;2023-08-24T15:33:14;33.60;70.20
14097;DHT22;7125;48.106;11.544;2023-08-24T15:35:41;33.50;66.30
14097;DHT22;7125;48.106;11.544;2023-08-24T15:38:09;33.50;65.50
14097;DHT22;7125;48.106;11.544;2023-08-24T15:40:36;33.60;63.70